Terminal Aerodrome Forecast
Issued by NWS Wilmington, OH

Current Version | Previous Version | Text Only | Print | Product List | Glossary On
Versions: 1 2 3 4 5 6 7 8 9 10 11 12 13 14 15 16 17 18 19
000 FTUS41 KILN 162340 TAFDAY TAF KDAY 162340Z 1700/1724 21007KT P6SM SCT250 FM171600 20007KT P6SM VCSH BKN100 FM171900 20007KT P6SM -SHRA OVC050 FM172200 20006KT P6SM VCSH OVC050=

USA.gov is the U.S. government's official web portal to all federal, state and local government web resources and services.